sensor_id;sensor_type;location;lat;lon;timestamp;temperature;humidity
10536;DHT22;5316;49.538;8.352;2023-02-28T00:02:23;1.00;56.40
10536;DHT22;5316;49.538;8.352;2023-02-28T00:04:57;1.00;93.70
10536;DHT22;5316;49.538;8.352;2023-02-28T00:07:32;1.00;77.50
10536;DHT22;5316;49.538;8.352;2023-02-28T02:41:17;-0.30;99.90
10536;DHT22;5316;49.538;8.352;2023-02-28T02:44:27;-0.30;1.00
10536;DHT22;5316;49.538;8.352;2023-02-28T02:47:19;-0.40;1.00
10536;DHT22;5316;49.538;8.352;2023-02-28T02:50:06;-0.40;1.00
10536;DHT22;5316;49.538;8.352;2023-02-28T02:53:00;-0.50;1.00
10536;DHT22;5316;49.538;8.352;2023-02-28T02:59:34;-0.50;1.00
10536;DHT22;5316;49.538;8.352;2023-02-28T03:02:19;-0.50;1.00
10536;DHT22;5316;49.538;8.352;2023-02-28T03:05:09;-0.50;2.00
10536;DHT22;5316;49.538;8.352;2023-02-28T03:08:02;-0.60;28.10
10536;DHT22;5316;49.538;8.352;2023-02-28T03:11:21;-0.50;1.00
10536;DHT22;5316;49.538;8.352;2023-02-28T03:14:36;-0.60;1.00
10536;DHT22;5316;49.538;8.352;2023-02-28T03:17:59;-0.50;1.00
10536;DHT22;5316;49.538;8.352;2023-02-28T03:21:00;-0.50;1.00
10536;DHT22;5316;49.538;8.352;2023-02-28T03:24:03;-0.50;1.00
10536;DHT22;5316;49.538;8.352;2023-02-28T03:26:58;-0.60;96.00
10536;DHT22;5316;49.538;8.352;2023-02-28T03:29:58;-0.60;99.20
10536;DHT22;5316;49.538;8.352;2023-02-28T03:32:54;-0.60;99.90
10536;DHT22;5316;49.538;8.352;2023-02-28T03:35:45;-0.60;99.90
10536;DHT22;5316;49.538;8.352;2023-02-28T03:38:54;-0.70;99.90
10536;DHT22;5316;49.538;8.352;2023-02-28T03:42:00;-0.60;99.90
10536;DHT22;5316;49.538;8.352;2023-02-28T03:51:29;-0.70;99.90
10536;DHT22;5316;49.538;8.352;2023-02-28T03:54:09;-0.60;1.00
10536;DHT22;5316;49.538;8.352;2023-02-28T03:57:10;-0.60;1.00
10536;DHT22;5316;49.538;8.352;2023-02-28T04:00:18;-0.60;99.90
10536;DHT22;5316;49.538;8.352;2023-02-28T04:54:58;-0.80;99.90
10536;DHT22;5316;49.538;8.352;2023-02-28T04:57:37;-0.80;99.90
10536;DHT22;5316;49.538;8.352;2023-02-28T05:00:41;-0.80;99.90
10536;DHT22;5316;49.538;8.352;2023-02-28T05:06:54;-0.90;99.90
10536;DHT22;5316;49.538;8.352;2023-02-28T05:09:54;-1.00;99.90
10536;DHT22;5316;49.538;8.352;2023-02-28T05:12:47;-1.00;1.00
10536;DHT22;5316;49.538;8.352;2023-02-28T05:16:16;-0.90;1.00
10536;DHT22;5316;49.538;8.352;2023-02-28T05:19:17;-1.00;9.10
10536;DHT22;5316;49.538;8.352;2023-02-28T05:21:56;-1.00;1.00
10536;DHT22;5316;49.538;8.352;2023-02-28T06:25:17;-0.60;99.90
10536;DHT22;5316;49.538;8.352;2023-02-28T08:00:15;0.80;1.00
10536;DHT22;5316;49.538;8.352;2023-02-28T08:02:43;0.90;1.00
10536;DHT22;5316;49.538;8.352;2023-02-28T08:05:11;0.90;1.00
10536;DHT22;5316;49.538;8.352;2023-02-28T08:07:40;1.00;1.00
10536;DHT22;5316;49.538;8.352;2023-02-28T08:10:13;1.10;99.90
10536;DHT22;5316;49.538;8.352;2023-02-28T08:12:42;1.30;99.90
10536;DHT22;5316;49.538;8.352;2023-02-28T08:15:15;1.40;99.90
10536;DHT22;5316;49.538;8.352;2023-02-28T08:17:45;1.40;99.90
10536;DHT22;5316;49.538;8.352;2023-02-28T08:20:16;1.60;1.00
10536;DHT22;5316;49.538;8.352;2023-02-28T08:22:46;1.60;1.00
10536;DHT22;5316;49.538;8.352;2023-02-28T08:25:23;1.70;1.00
10536;DHT22;5316;49.538;8.352;2023-02-28T08:27:53;1.80;1.00
10536;DHT22;5316;49.538;8.352;2023-02-28T08:30:27;2.00;99.90
10536;DHT22;5316;49.538;8.352;2023-02-28T08:32:58;2.00;99.90
10536;DHT22;5316;49.538;8.352;2023-02-28T08:35:28;2.00;39.20
10536;DHT22;5316;49.538;8.352;2023-02-28T08:37:56;2.10;5.10
10536;DHT22;5316;49.538;8.352;2023-02-28T08:40:26;2.10;28.30
10536;DHT22;5316;49.538;8.352;2023-02-28T08:42:55;2.20;1.00
10536;DHT22;5316;49.538;8.352;2023-02-28T08:45:28;2.20;1.00
10536;DHT22;5316;49.538;8.352;2023-02-28T08:48:01;2.20;1.00
10536;DHT22;5316;49.538;8.352;2023-02-28T08:50:30;2.30;1.00
10536;DHT22;5316;49.538;8.352;2023-02-28T08:52:58;2.30;1.00
10536;DHT22;5316;49.538;8.352;2023-02-28T08:55:29;2.40;1.00
10536;DHT22;5316;49.538;8.352;2023-02-28T08:57:58;2.50;1.00
10536;DHT22;5316;49.538;8.352;2023-02-28T09:00:28;2.50;1.00
10536;DHT22;5316;49.538;8.352;2023-02-28T09:02:57;2.60;1.00
10536;DHT22;5316;49.538;8.352;2023-02-28T09:05:25;2.70;1.00
10536;DHT22;5316;49.538;8.352;2023-02-28T09:07:56;2.70;1.00
10536;DHT22;5316;49.538;8.352;2023-02-28T09:10:25;2.60;1.00
10536;DHT22;5316;49.538;8.352;2023-02-28T10:09:25;3.50;99.90
10536;DHT22;5316;49.538;8.352;2023-02-28T10:11:57;3.50;99.90
10536;DHT22;5316;49.538;8.352;2023-02-28T10:14:37;3.40;99.90
10536;DHT22;5316;49.538;8.352;2023-02-28T10:17:24;3.60;99.90
10536;DHT22;5316;49.538;8.352;2023-02-28T10:20:21;3.60;99.90
10536;DHT22;5316;49.538;8.352;2023-02-28T10:23:08;3.60;99.90
10536;DHT22;5316;49.538;8.352;2023-02-28T10:25:49;3.70;99.90
10536;DHT22;5316;49.538;8.352;2023-02-28T10:28:23;3.70;99.90
10536;DHT22;5316;49.538;8.352;2023-02-28T10:31:06;3.80;99.90
10536;DHT22;5316;49.538;8.352;2023-02-28T10:33:51;3.90;99.90
10536;DHT22;5316;49.538;8.352;2023-02-28T10:36:40;4.00;72.10
10536;DHT22;5316;49.538;8.352;2023-02-28T10:39:35;4.00;67.20
10536;DHT22;5316;49.538;8.352;2023-02-28T10:42:29;4.10;63.00
10536;DHT22;5316;49.538;8.352;2023-02-28T10:45:13;4.20;34.40
10536;DHT22;5316;49.538;8.352;2023-02-28T10:47:54;4.20;19.90
10536;DHT22;5316;49.538;8.352;2023-02-28T10:50:44;4.30;20.10
10536;DHT22;5316;49.538;8.352;2023-02-28T10:53:44;4.30;4.80
10536;DHT22;5316;49.538;8.352;2023-02-28T10:56:26;4.30;1.00
10536;DHT22;5316;49.538;8.352;2023-02-28T10:59:21;4.30;1.00
10536;DHT22;5316;49.538;8.352;2023-02-28T11:01:54;4.30;2.90
10536;DHT22;5316;49.538;8.352;2023-02-28T11:04:42;4.30;3.20
10536;DHT22;5316;49.538;8.352;2023-02-28T11:07:28;4.30;1.00
10536;DHT22;5316;49.538;8.352;2023-02-28T11:10:23;4.30;1.00
10536;DHT22;5316;49.538;8.352;2023-02-28T11:12:59;4.40;1.00
10536;DHT22;5316;49.538;8.352;2023-02-28T11:15:56;4.50;1.00
10536;DHT22;5316;49.538;8.352;2023-02-28T11:18:32;4.50;1.00
10536;DHT22;5316;49.538;8.352;2023-02-28T11:21:26;4.60;1.00
10536;DHT22;5316;49.538;8.352;2023-02-28T11:24:26;4.70;1.00
10536;DHT22;5316;49.538;8.352;2023-02-28T11:27:39;4.90;1.00
10536;DHT22;5316;49.538;8.352;2023-02-28T11:30:39;4.90;1.00
10536;DHT22;5316;49.538;8.352;2023-02-28T11:33:27;5.10;1.00
10536;DHT22;5316;49.538;8.352;2023-02-28T11:36:03;5.10;1.00
10536;DHT22;5316;49.538;8.352;2023-02-28T13:22:18;7.20;1.00
10536;DHT22;5316;49.538;8.352;2023-02-28T13:38:55;7.50;1.00
10536;DHT22;5316;49.538;8.352;2023-02-28T13:45:33;8.00;1.00
10536;DHT22;5316;49.538;8.352;2023-02-28T13:48:19;8.20;1.00
10536;DHT22;5316;49.538;8.352;2023-02-28T13:50:54;8.30;1.00
10536;DHT22;5316;49.538;8.352;2023-02-28T13:53:51;8.40;1.00
10536;DHT22;5316;49.538;8.352;2023-02-28T13:56:52;8.30;1.00
10536;DHT22;5316;49.538;8.352;2023-02-28T14:00:07;8.30;1.00
10536;DHT22;5316;49.538;8.352;2023-02-28T14:03:11;8.30;1.00
10536;DHT22;5316;49.538;8.352;2023-02-28T14:16:15;8.50;1.00
10536;DHT22;5316;49.538;8.352;2023-02-28T15:57:38;11.50;1.00
10536;DHT22;5316;49.538;8.352;2023-02-28T16:00:43;11.60;1.00
10536;DHT22;5316;49.538;8.352;2023-02-28T16:03:34;11.70;1.00
10536;DHT22;5316;49.538;8.352;2023-02-28T16:09:24;11.60;1.00
10536;DHT22;5316;49.538;8.352;2023-02-28T16:12:12;11.50;1.00
10536;DHT22;5316;49.538;8.352;2023-02-28T16:15:28;11.30;1.00
10536;DHT22;5316;49.538;8.352;2023-02-28T16:18:16;11.30;1.00
10536;DHT22;5316;49.538;8.352;2023-02-28T16:20:46;10.90;1.00
10536;DHT22;5316;49.538;8.352;2023-02-28T16:23:18;10.70;1.00
10536;DHT22;5316;49.538;8.352;2023-02-28T16:25:49;10.20;1.00
10536;DHT22;5316;49.538;8.352;2023-02-28T16:28:24;9.80;1.00
10536;DHT22;5316;49.538;8.352;2023-02-28T16:30:55;9.40;1.00
10536;DHT22;5316;49.538;8.352;2023-02-28T16:33:24;9.00;1.00
10536;DHT22;5316;49.538;8.352;2023-02-28T16:35:55;8.70;1.00
10536;DHT22;5316;49.538;8.352;2023-02-28T16:38:24;8.30;1.00
10536;DHT22;5316;49.538;8.352;2023-02-28T16:40:55;8.00;1.00
10536;DHT22;5316;49.538;8.352;2023-02-28T16:43:26;7.80;1.00
10536;DHT22;5316;49.538;8.352;2023-02-28T16:46:00;7.40;1.00
10536;DHT22;5316;49.538;8.352;2023-02-28T16:49:11;7.10;1.00
10536;DHT22;5316;49.538;8.352;2023-02-28T17:12:21;5.80;1.00
10536;DHT22;5316;49.538;8.352;2023-02-28T17:14:49;5.70;1.00
10536;DHT22;5316;49.538;8.352;2023-02-28T17:17:20;5.60;1.00
10536;DHT22;5316;49.538;8.352;2023-02-28T17:19:58;5.50;1.00
10536;DHT22;5316;49.538;8.352;2023-02-28T17:26:24;5.40;1.00
10536;DHT22;5316;49.538;8.352;2023-02-28T17:29:14;5.30;1.00
10536;DHT22;5316;49.538;8.352;2023-02-28T17:34:35;5.10;1.00
10536;DHT22;5316;49.538;8.352;2023-02-28T17:37:11;5.10;1.00
10536;DHT22;5316;49.538;8.352;2023-02-28T17:40:14;5.00;2.80
10536;DHT22;5316;49.538;8.352;2023-02-28T18:57:45;3.90;99.90
10536;DHT22;5316;49.538;8.352;2023-02-28T19:00:33;3.80;99.90
10536;DHT22;5316;49.538;8.352;2023-02-28T19:03:06;3.80;99.90
10536;DHT22;5316;49.538;8.352;2023-02-28T19:05:42;3.80;99.90
10536;DHT22;5316;49.538;8.352;2023-02-28T19:08:24;3.80;99.90
10536;DHT22;5316;49.538;8.352;2023-02-28T19:10:53;3.80;99.90
10536;DHT22;5316;49.538;8.352;2023-02-28T19:16:47;3.70;99.90
10536;DHT22;5316;49.538;8.352;2023-02-28T19:19:29;3.60;99.90
10536;DHT22;5316;49.538;8.352;2023-02-28T19:21:58;3.60;99.90
10536;DHT22;5316;49.538;8.352;2023-02-28T19:24:46;3.60;99.90
10536;DHT22;5316;49.538;8.352;2023-02-28T19:27:24;3.50;99.90
10536;DHT22;5316;49.538;8.352;2023-02-28T19:29:58;3.50;99.90
10536;DHT22;5316;49.538;8.352;2023-02-28T19:33:14;3.50;99.90
10536;DHT22;5316;49.538;8.352;2023-02-28T19:35:26;3.50;99.90
10536;DHT22;5316;49.538;8.352;2023-02-28T19:37:56;3.40;99.90
10536;DHT22;5316;49.538;8.352;2023-02-28T19:40:23;3.40;99.90
10536;DHT22;5316;49.538;8.352;2023-02-28T19:42:52;3.40;99.90
10536;DHT22;5316;49.538;8.352;2023-02-28T19:45:20;3.30;99.90
10536;DHT22;5316;49.538;8.352;2023-02-28T19:47:53;3.30;99.90
10536;DHT22;5316;49.538;8.352;2023-02-28T19:50:33;3.20;99.90
10536;DHT22;5316;49.538;8.352;2023-02-28T19:53:05;3.20;99.90
10536;DHT22;5316;49.538;8.352;2023-02-28T19:55:45;3.30;99.90
10536;DHT22;5316;49.538;8.352;2023-02-28T20:08:05;3.00;99.90
10536;DHT22;5316;49.538;8.352;2023-02-28T20:10:35;3.00;99.90
10536;DHT22;5316;49.538;8.352;2023-02-28T20:13:09;2.90;99.90
10536;DHT22;5316;49.538;8.352;2023-02-28T20:15:37;2.90;99.90
10536;DHT22;5316;49.538;8.352;2023-02-28T20:18:31;2.90;99.90
10536;DHT22;5316;49.538;8.352;2023-02-28T20:21:28;2.80;99.90
10536;DHT22;5316;49.538;8.352;2023-02-28T20:27:53;2.80;99.90
10536;DHT22;5316;49.538;8.352;2023-02-28T20:30:25;2.80;99.90
10536;DHT22;5316;49.538;8.352;2023-02-28T20:33:14;2.80;99.90
10536;DHT22;5316;49.538;8.352;2023-02-28T20:36:01;2.70;99.90
10536;DHT22;5316;49.538;8.352;2023-02-28T20:38:30;2.70;99.90
10536;DHT22;5316;49.538;8.352;2023-02-28T20:41:04;2.70;99.90
10536;DHT22;5316;49.538;8.352;2023-02-28T20:43:33;2.60;99.90
10536;DHT22;5316;49.538;8.352;2023-02-28T20:46:01;2.60;99.90
10536;DHT22;5316;49.538;8.352;2023-02-28T20:48:32;2.50;99.90
10536;DHT22;5316;49.538;8.352;2023-02-28T21:47:58;1.90;1.00
10536;DHT22;5316;49.538;8.352;2023-02-28T21:50:25;1.90;1.00
10536;DHT22;5316;49.538;8.352;2023-02-28T21:53:22;1.90;1.00
10536;DHT22;5316;49.538;8.352;2023-02-28T21:55:52;1.80;1.00
10536;DHT22;5316;49.538;8.352;2023-02-28T21:58:20;1.80;1.00
10536;DHT22;5316;49.538;8.352;2023-02-28T22:00:47;1.80;1.00
10536;DHT22;5316;49.538;8.352;2023-02-28T22:03:17;1.80;1.00
10536;DHT22;5316;49.538;8.352;2023-02-28T22:18:43;1.60;99.90
10536;DHT22;5316;49.538;8.352;2023-02-28T22:21:12;1.60;99.90
10536;DHT22;5316;49.538;8.352;2023-02-28T22:23:48;1.60;99.90
10536;DHT22;5316;49.538;8.352;2023-02-28T22:26:21;1.60;99.90
10536;DHT22;5316;49.538;8.352;2023-02-28T22:28:51;1.60;99.90
10536;DHT22;5316;49.538;8.352;2023-02-28T22:31:23;1.60;99.90
10536;DHT22;5316;49.538;8.352;2023-02-28T22:34:07;1.50;99.90
10536;DHT22;5316;49.538;8.352;2023-02-28T22:36:53;1.50;99.90
10536;DHT22;5316;49.538;8.352;2023-02-28T22:39:28;1.40;99.90
10536;DHT22;5316;49.538;8.352;2023-02-28T22:41:59;1.50;99.90
10536;DHT22;5316;49.538;8.352;2023-02-28T22:44:28;1.50;99.90
10536;DHT22;5316;49.538;8.352;2023-02-28T22:49:46;1.40;99.90
10536;DHT22;5316;49.538;8.352;2023-02-28T22:52:13;1.40;99.90
10536;DHT22;5316;49.538;8.352;2023-02-28T22:55:15;1.30;99.90
10536;DHT22;5316;49.538;8.352;2023-02-28T22:57:42;1.30;99.90
10536;DHT22;5316;49.538;8.352;2023-02-28T23:00:11;1.30;99.90
10536;DHT22;5316;49.538;8.352;2023-02-28T23:02:40;1.30;99.90
10536;DHT22;5316;49.538;8.352;2023-02-28T23:05:18;1.20;99.90
10536;DHT22;5316;49.538;8.352;2023-02-28T23:07:45;1.20;99.90
10536;DHT22;5316;49.538;8.352;2023-02-28T23:10:16;1.10;99.90
10536;DHT22;5316;49.538;8.352;2023-02-28T23:12:45;1.10;1.00
10536;DHT22;5316;49.538;8.352;2023-02-28T23:15:19;1.10;1.00
10536;DHT22;5316;49.538;8.352;2023-02-28T23:17:49;1.10;1.00
10536;DHT22;5316;49.538;8.352;2023-02-28T23:20:21;1.10;1.00
10536;DHT22;5316;49.538;8.352;2023-02-28T23:22:50;1.00;1.00
10536;DHT22;5316;49.538;8.352;2023-02-28T23:25:21;1.00;1.00
10536;DHT22;5316;49.538;8.352;2023-02-28T23:27:49;1.00;1.00
10536;DHT22;5316;49.538;8.352;2023-02-28T23:30:19;1.00;1.00
10536;DHT22;5316;49.538;8.352;2023-02-28T23:32:55;0.90;1.00
10536;DHT22;5316;49.538;8.352;2023-02-28T23:35:35;0.90;1.00
10536;DHT22;5316;49.538;8.352;2023-02-28T23:38:04;0.90;1.00
10536;DHT22;5316;49.538;8.352;2023-02-28T23:40:34;0.80;1.00
10536;DHT22;5316;49.538;8.352;2023-02-28T23:43:01;0.80;1.00
10536;DHT22;5316;49.538;8.352;2023-02-28T23:45:29;0.70;1.00
10536;DHT22;5316;49.538;8.352;2023-02-28T23:48:08;0.70;1.00
10536;DHT22;5316;49.538;8.352;2023-02-28T23:50:38;0.60;27.80
10536;DHT22;5316;49.538;8.352;2023-02-28T23:53:14;0.60;76.60
10536;DHT22;5316;49.538;8.352;2023-02-28T23:55:49;0.60;99.90
10536;DHT22;5316;49.538;8.352;2023-02-28T23:58:17;0.60;99.90
